地図

経路データ

SID SEASON NUMBER BASIN SUBBASIN NAME ISO_TIME NATURE LAT LON WMO_WIND WMO_PRES WMO_AGENCY TRACK_TYPE DIST2LAND LANDFALL IFLAG USA_AGENCY USA_ATCF_ID USA_LAT USA_LON USA_RECORD USA_STATUS USA_WIND USA_PRES USA_SSHS USA_R34_NE USA_R34_SE USA_R34_SW USA_R34_NW USA_R50_NE USA_R50_SE USA_R50_SW USA_R50_NW USA_R64_NE USA_R64_SE USA_R64_SW USA_R64_NW USA_POCI USA_ROCI USA_RMW USA_EYE TOKYO_LAT TOKYO_LON TOKYO_GRADE TOKYO_WIND TOKYO_PRES TOKYO_R50_DIR TOKYO_R50_LONG TOKYO_R50_SHORT TOKYO_R30_DIR TOKYO_R30_LONG TOKYO_R30_SHORT TOKYO_LAND CMA_LAT CMA_LON CMA_CAT CMA_WIND CMA_PRES HKO_LAT HKO_LON HKO_CAT HKO_WIND HKO_PRES NEWDELHI_LAT NEWDELHI_LON NEWDELHI_GRADE NEWDELHI_WIND NEWDELHI_PRES NEWDELHI_CI NEWDELHI_DP NEWDELHI_POCI REUNION_LAT REUNION_LON REUNION_TYPE REUNION_WIND REUNION_PRES REUNION_TNUM REUNION_CI REUNION_RMW REUNION_R34_NE REUNION_R34_SE REUNION_R34_SW REUNION_R34_NW REUNION_R50_NE REUNION_R50_SE REUNION_R50_SW REUNION_R50_NW REUNION_R64_NE REUNION_R64_SE REUNION_R64_SW REUNION_R64_NW BOM_LAT BOM_LON BOM_TYPE BOM_WIND BOM_PRES BOM_TNUM BOM_CI BOM_RMW BOM_R34_NE BOM_R34_SE BOM_R34_SW BOM_R34_NW BOM_R50_NE BOM_R50_SE BOM_R50_SW BOM_R50_NW BOM_R64_NE BOM_R64_SE BOM_R64_SW BOM_R64_NW BOM_ROCI BOM_POCI BOM_EYE BOM_POS_METHOD BOM_PRES_METHOD NADI_LAT NADI_LON NADI_CAT NADI_WIND NADI_PRES WELLINGTON_LAT WELLINGTON_LON WELLINGTON_WIND WELLINGTON_PRES DS824_LAT DS824_LON DS824_STAGE DS824_WIND DS824_PRES TD9636_LAT TD9636_LON TD9636_STAGE TD9636_WIND TD9636_PRES TD9635_LAT TD9635_LON TD9635_WIND TD9635_PRES TD9635_ROCI NEUMANN_LAT NEUMANN_LON NEUMANN_CLASS NEUMANN_WIND NEUMANN_PRES MLC_LAT MLC_LON MLC_CLASS MLC_WIND MLC_PRES USA_GUST BOM_GUST BOM_GUST_PER REUNION_GUST REUNION_GUST_PER USA_SEAHGT USA_SEARAD_NE USA_SEARAD_SE USA_SEARAD_SW USA_SEARAD_NW STORM_SPEED STORM_DIR
1912071S11082 1912 12 SI MM NOT_NAMED 1912-03-11 00:00:00 TS -10.8000 81.6000 main 1874 1874 _________O____ -1 -10.8000 81.6000 TC 25 7 108
1912071S11082 1912 12 SI MM NOT_NAMED 1912-03-11 03:00:00 TS -10.9101 81.9474 main 1887 1887 _________P____ -1 -10.9101 81.9474 TC 25 7 106
1912071S11082 1912 12 SI MM NOT_NAMED 1912-03-11 06:00:00 TS -11.0000 82.3000 main 1902 1902 _________O____ -1 -11.0000 82.3000 TC 25 7 102
1912071S11082 1912 12 SI MM NOT_NAMED 1912-03-11 09:00:00 TS -11.0575 82.6575 main 1918 1918 _________P____ -1 -11.0575 82.6575 TC 25 7 98
1912071S11082 1912 12 SI MM NOT_NAMED 1912-03-11 12:00:00 TS -11.1000 83.0000 main 1923 1923 _________O____ -1 -11.1000 83.0000 TC 25 6 98
1912071S11082 1912 12 SI MM NOT_NAMED 1912-03-11 15:00:00 TS -11.1499 83.3075 main 1928 1928 _________P____ -1 -11.1499 83.3075 TC 25 6 100
1912071S11082 1912 12 SI MM NOT_NAMED 1912-03-11 18:00:00 TS -11.2000 83.6000 main 1944 1944 _________O____ -1 -11.2000 83.6000 TC 25 6 100
1912071S11082 1912 12 SI MM NOT_NAMED 1912-03-11 21:00:00 TS -11.2499 83.8850 main 1950 1947 _________P____ -1 -11.2499 83.8850 TC 25 6 100
1912071S11082 1912 12 SI MM NOT_NAMED 1912-03-12 00:00:00 TS -11.3000 84.2000 main 1947 1910 _________O____ -1 -11.3000 84.2000 TC 25 7 98
1912071S11082 1912 12 SI MM NOT_NAMED 1912-03-12 03:00:00 TS -11.3425 84.5850 main 1910 1880 _________P____ -1 -11.3425 84.5850 TC 25 8 97
1912071S11082 1912 12 SI MM NOT_NAMED 1912-03-12 06:00:00 TS -11.4000 85.0000 main 1880 1851 _________O____ -1 -11.4000 85.0000 TC 25 8 101
1912071S11082 1912 12 SI MM NOT_NAMED 1912-03-12 09:00:00 TS -11.5000 85.4075 main 1851 1822 _________P____ -1 -11.5000 85.4075 TC 25 8 104
1912071S11082 1912 12 SI MM NOT_NAMED 1912-03-12 12:00:00 TS -11.6000 85.8000 main 1822 1796 _________O____ -1 -11.6000 85.8000 TC 25 8 101
1912071S11082 1912 12 SI MM NOT_NAMED 1912-03-12 15:00:00 TS -11.6500 86.1651 main 1787 1768 _________P____ -1 -11.6500 86.1651 TC 25 7 98
1912071S11082 1912 12 SI MM NOT_NAMED 1912-03-12 18:00:00 TS -11.7000 86.5000 main 1768 1750 _________O____ -1 -11.7000 86.5000 TC 25 6 103
1912071S11082 1912 12 SI MM NOT_NAMED 1912-03-12 21:00:00 TS -11.7924 86.7925 main 1750 1732 _________P____ -1 -11.7924 86.7925 TC 25 6 109
1912071S11082 1912 12 SI MM NOT_NAMED 1912-03-13 00:00:00 TS -11.9000 87.1000 main 1732 1707 _________O____ -1 -11.9000 87.1000 TC 25 7 108
1912071S11082 1912 12 SI MM NOT_NAMED 1912-03-13 03:00:00 TS -12.0075 87.4850 main 1707 1682 _________P____ -1 -12.0075 87.4850 TC 25 8 104
1912071S11082 1912 12 SI MM NOT_NAMED 1912-03-13 06:00:00 TS -12.1000 87.9000 main 1682 1658 _________O____ -1 -12.1000 87.9000 TC 25 8 101
1912071S11082 1912 12 SI MM NOT_NAMED 1912-03-13 09:00:00 TS -12.1575 88.3075 main 1658 1627 _________P____ -1 -12.1575 88.3075 TC 25 8 97
1912071S11082 1912 12 SI MM NOT_NAMED 1912-03-13 12:00:00 TS -12.2000 88.7000 main 1627 1605 _________O____ -1 -12.2000 88.7000 TC 25 7 97
1912071S11082 1912 12 SI MM NOT_NAMED 1912-03-13 15:00:00 TS -12.2500 89.0650 main 1597 1583 _________P____ -1 -12.2500 89.0650 TC 25 7 98
1912071S11082 1912 12 SI MM NOT_NAMED 1912-03-13 18:00:00 TS -12.3000 89.4000 main 1583 1562 _________O____ -1 -12.3000 89.4000 TC 25 6 99
1912071S11082 1912 12 SI MM NOT_NAMED 1912-03-13 21:00:00 TS -12.3500 89.7150 main 1562 1549 _________P____ -1 -12.3500 89.7150 TC 25 6 100
1912071S11082 1912 12 SI WA NOT_NAMED 1912-03-14 00:00:00 TS -12.4000 90.0000 main 1549 1535 _________O____ -1 -12.4000 90.0000 TC 25 5 101
1912071S11082 1912 12 SI WA NOT_NAMED 1912-03-14 03:00:00 TS -12.4500 90.2575 main 1528 1523 _________P____ -1 -12.4500 90.2575 TC 25 5 102
1912071S11082 1912 12 SI WA NOT_NAMED 1912-03-14 06:00:00 TS -12.5000 90.5000 main 1523 1510 _________O____ -1 -12.5000 90.5000 TC 25 5 102
1912071S11082 1912 12 SI WA NOT_NAMED 1912-03-14 09:00:00 TS -12.5500 90.7425 main 1510 1499 _________P____ -1 -12.5500 90.7425 TC 25 5 102
1912071S11082 1912 12 SI WA NOT_NAMED 1912-03-14 12:00:00 TS -12.6000 91.0000 main 1499 1481 _________O____ -1 -12.6000 91.0000 TC 25 6 100
1912071S11082 1912 12 SI WA NOT_NAMED 1912-03-14 15:00:00 TS -12.6500 91.3000 main 1490 1471 _________P____ -1 -12.6500 91.3000 TC 25 6 100
1912071S11082 1912 12 SI WA NOT_NAMED 1912-03-14 18:00:00 TS -12.7000 91.6000 main 1471 1459 _________O____ -1 -12.7000 91.6000 TC 25 6 100
1912071S11082 1912 12 SI WA NOT_NAMED 1912-03-14 21:00:00 TS -12.7500 91.8575 main 1454 1451 _________P____ -1 -12.7500 91.8575 TC 25 5 102
1912071S11082 1912 12 SI WA NOT_NAMED 1912-03-15 00:00:00 TS -12.8000 92.1000 main 1451 1440 _________O____ -1 -12.8000 92.1000 TC 25 5 102
1912071S11082 1912 12 SI WA NOT_NAMED 1912-03-15 03:00:00 TS -12.8500 92.3425 main 1440 1434 _________P____ -1 -12.8500 92.3425 TC 25 5 102
1912071S11082 1912 12 SI WA NOT_NAMED 1912-03-15 06:00:00 TS -12.9000 92.6000 main 1434 1418 _________O____ -1 -12.9000 92.6000 TC 25 6 100
1912071S11082 1912 12 SI WA NOT_NAMED 1912-03-15 09:00:00 TS -12.9500 92.9000 main 1428 1413 _________P____ -1 -12.9500 92.9000 TC 25 6 100
1912071S11082 1912 12 SI WA NOT_NAMED 1912-03-15 12:00:00 TS -13.0000 93.2000 main 1413 1403 _________O____ -1 -13.0000 93.2000 TC 25 6 100
1912071S11082 1912 12 SI WA NOT_NAMED 1912-03-15 15:00:00 TS -13.0500 93.4575 main 1397 1390 _________P____ -1 -13.0500 93.4575 TC 25 5 102
1912071S11082 1912 12 SI WA NOT_NAMED 1912-03-15 18:00:00 TS -13.1000 93.7000 main 1390 1375 _________O____ -1 -13.1000 93.7000 TC 25 5 102
1912071S11082 1912 12 SI WA NOT_NAMED 1912-03-15 21:00:00 TS -13.1500 93.9500 main 1368 1361 _________P____ -1 -13.1500 93.9500 TC 25 5 102
1912071S11082 1912 12 SI WA NOT_NAMED 1912-03-16 00:00:00 TS -13.2000 94.2000 main 1361 1347 _________O____ -1 -13.2000 94.2000 TC 25 5 103
1912071S11082 1912 12 SI WA NOT_NAMED 1912-03-16 03:00:00 TS -13.2575 94.4425 main 1356 1335 _________P____ -1 -13.2575 94.4425 TC 25 5 102
1912071S11082 1912 12 SI WA NOT_NAMED 1912-03-16 06:00:00 TS -13.3000 94.7000 main 1335 1313 _________O____ -1 -13.3000 94.7000 TC 25 5 95
1912071S11082 1912 12 SI WA NOT_NAMED 1912-03-16 09:00:00 TS -13.3075 95.0000 main 1313 1291 _________P____ -1 -13.3075 95.0000 TC 25 6 90
1912071S11082 1912 12 SI WA NOT_NAMED 1912-03-16 12:00:00 TS -13.3000 95.3000 main 1291 1270 _________O____ -1 -13.3000 95.3000 TC 25 6 88
1912071S11082 1912 12 SI WA NOT_NAMED 1912-03-16 15:00:00 TS -13.2925 95.5650 main 1270 1256 _________P____ -1 -13.2925 95.5650 TC 25 5 90
1912071S11082 1912 12 SI WA NOT_NAMED 1912-03-16 18:00:00 TS -13.3000 95.8000 main 1256 1243 _________O____ -1 -13.3000 95.8000 TC 25 4 97
1912071S11082 1912 12 SI WA NOT_NAMED 1912-03-16 21:00:00 TS -13.3424 95.9775 main 1243 1231 _________P____ -1 -13.3424 95.9775 TC 25 4 104
1912071S11082 1912 12 SI WA NOT_NAMED 1912-03-17 00:00:00 TS -13.4000 96.2000 main 1231 1205 _________O____ -1 -13.4000 96.2000 TC 25 6 100
1912071S11082 1912 12 SI WA NOT_NAMED 1912-03-17 03:00:00 TS -13.4426 96.5700 main 1197 1170 _________P____ -1 -13.4426 96.5700 TC 25 8 97
1912071S11082 1912 12 SI WA NOT_NAMED 1912-03-17 06:00:00 TS -13.5000 97.0000 main 1170 1144 _________O____ -1 -13.5000 97.0000 TC 25 8 101
1912071S11082 1912 12 SI WA NOT_NAMED 1912-03-17 09:00:00 TS -13.6000 97.4075 main 1144 1119 _________P____ -1 -13.6000 97.4075 TC 25 8 104
1912071S11082 1912 12 SI WA NOT_NAMED 1912-03-17 12:00:00 TS -13.7000 97.8000 main 1119 1095 _________O____ -1 -13.7000 97.8000 TC 25 7 102
1912071S11082 1912 12 SI WA NOT_NAMED 1912-03-17 15:00:00 TS -13.7499 98.1576 main 1088 1073 _________P____ -1 -13.7499 98.1576 TC 25 7 98
1912071S11082 1912 12 SI WA NOT_NAMED 1912-03-17 18:00:00 TS -13.8000 98.5000 main 1073 1058 _________O____ -1 -13.8000 98.5000 TC 25 7 102
1912071S11082 1912 12 SI WA NOT_NAMED 1912-03-17 21:00:00 TS -13.8924 98.8350 main 1059 1039 _________P____ -1 -13.8924 98.8350 TC 25 7 106
1912071S11082 1912 12 SI WA NOT_NAMED 1912-03-18 00:00:00 TS -14.0000 99.2000 main 1039 1021 _________O____ -1 -14.0000 99.2000 TC 25 8 105
1912071S11082 1912 12 SI WA NOT_NAMED 1912-03-18 03:00:00 TS -14.1075 99.6350 main 1021 998 _________P____ -1 -14.1075 99.6350 TC 25 9 103
1912071S11082 1912 12 SI WA NOT_NAMED 1912-03-18 06:00:00 TS -14.2000 100.100 main 998 975 _________O____ -1 -14.2000 100.100 TC 25 9 99
1912071S11082 1912 12 SI WA NOT_NAMED 1912-03-18 09:00:00 TS -14.2500 100.573 main 979 957 _________P____ -1 -14.2500 100.573 TC 25 9 97
1912071S11082 1912 12 SI WA NOT_NAMED 1912-03-18 12:00:00 TS -14.3000 101.000 main 957 947 _________O____ -1 -14.3000 101.000 TC 25 7 101
1912071S11082 1912 12 SI WA NOT_NAMED 1912-03-18 15:00:00 TS -14.3849 101.323 main 951 942 _________P____ -1 -14.3849 101.323 TC 25 6 109
1912071S11082 1912 12 SI WA NOT_NAMED 1912-03-18 18:00:00 TS -14.5000 101.600 main 947 943 _________O____ -1 -14.5000 101.600 TC 25 6 115
1912071S11082 1912 12 SI WA NOT_NAMED 1912-03-18 21:00:00 TS -14.6426 101.892 main 944 942 _________P____ -1 -14.6426 101.892 TC 25 7 117
1912071S11082 1912 12 SI WA NOT_NAMED 1912-03-19 00:00:00 TS -14.8000 102.200 main 947 _________O____ -1 -14.8000 102.200 TC 25 7 118

IBTrACS Databaseについて

本データベースは、米国NOAAが公開する1842年以降の世界の熱帯低気圧のベストトラックデータアーカイブInternational Best Track Archive for Climate Stewardship (IBTrACS)を、ウェブで閲覧しやすい形式に変換したものです。

最終更新日:2021-10-21